Strona główna
METAR-TAF:

METAR-TAF

Lotnisko :

Kbely

Praga, Czechy

Szerokość geograficzna: 50-07-17N, Długość geograficzna: 14-32-37E, wysokość: 286 m

Aktualna obserwacja pogody

Raport powstał 17 minut temu, godzina 12:00 UTC
Wiatr 5 kt od północny wschód, zmienny między północno-północny wschód i wschód
Temperatura 6°C
Wilgotność 65%
Ciśnienie 1022 hPa
Widzialność: 9000 m

METAR: LKKB 181200Z 05005KT 020V080 9000 NSC 06/M00 Q1022 NOSIG

czas: 13:17 (12:17 UTC)

Prognoza

Raport powstał 1 godzina i 17 minut temu, godzina 11:00 UTC
Prognoza ważna od 18 godzina 12 UTC do 19 godzina 12 UTC
Wiatr 5 kt od wschód
Widzialność 10 km lub więcej
Brak chmur poniżej 1500 m i brak chmur cumulonimbus
Przejściowo
od 18 godzina 22 UTC do 19 godzina 07 UTC
Wiatr 2 kt z kierunków zmiennych
Widzialność: 7000 m
Stopniowe zmiany
od 19 godzina 08 UTC do 19 godzina 10 UTC
Wiatr 12 kt od zachód

TAF: LKKB 181100Z 1812/1912 10005KT CAVOK TEMPO 1822/1907 VRB02KT 7000 NSC BECMG 1908/1910 26012KT

Obserwacja i prognoza pogody dla ponad 4000 lotnisk (raport METAR i TAF).

Dostępne stacje oznaczono żółtymi i czerwonymi punktami na mapie.

Najedź kursorem aby zobaczyć nazwę stacji.

Kliknij aby zobaczyć obserwacje i prognozy pogody.

Aby zmienić mapę: kliknij na zielony przycisk z czarnym krzyżykiem, aby powiększyć; na zielony przycisk z myślnikiem, aby pomniejszyć; na zielone strzałki, aby przejść do map sąsiednich.


METAR-TAF: